createdAt,value
2017-06-23T00:01:08.239Z,100079
2017-06-23T00:03:36.430Z,100077
2017-06-23T00:06:04.625Z,100078
2017-06-23T00:08:33.619Z,100082
2017-06-23T00:11:02.594Z,100076
2017-06-23T00:13:30.806Z,100089
2017-06-23T00:15:59.081Z,100098
2017-06-23T00:18:27.305Z,100102
2017-06-23T00:20:55.492Z,100102
2017-06-23T00:23:24.535Z,100100
2017-06-23T00:25:52.723Z,100104
2017-06-23T00:28:20.908Z,100104
2017-06-23T00:30:49.136Z,100106
2017-06-23T00:33:17.323Z,100114
2017-06-23T00:35:45.521Z,100101
2017-06-23T00:38:13.731Z,100110
2017-06-23T00:40:42.707Z,100113
2017-06-23T00:43:10.908Z,100121
2017-06-23T00:45:39.280Z,100113
2017-06-23T00:48:08.239Z,100122
2017-06-23T00:50:36.437Z,100118
2017-06-23T00:53:05.432Z,100133
2017-06-23T00:55:33.691Z,100138
2017-06-23T00:58:01.892Z,100146
2017-06-23T01:00:30.891Z,100147
2017-06-23T01:02:59.068Z,100143
2017-06-23T01:05:27.257Z,100148
2017-06-23T01:07:55.620Z,100145
2017-06-23T01:10:23.807Z,100147
2017-06-23T01:12:52.015Z,100155
2017-06-23T01:15:20.219Z,100146
2017-06-23T01:17:48.395Z,100146
2017-06-23T01:20:16.607Z,100141
2017-06-23T01:22:44.811Z,100141
2017-06-23T01:25:13.000Z,100138
2017-06-23T01:27:41.204Z,100158
2017-06-23T01:30:09.379Z,100148
2017-06-23T01:32:37.563Z,100148
2017-06-23T01:35:05.746Z,100160
2017-06-23T01:37:34.014Z,100163
2017-06-23T01:40:02.147Z,100157
2017-06-23T01:42:31.124Z,100175
2017-06-23T01:44:59.321Z,100169
2017-06-23T01:47:27.565Z,100165
2017-06-23T01:49:55.767Z,100159
2017-06-23T01:52:23.951Z,100167
2017-06-23T01:54:52.136Z,100170
2017-06-23T01:57:20.347Z,100178
2017-06-23T01:59:48.558Z,100175
2017-06-23T02:02:17.520Z,100164
2017-06-23T02:04:45.858Z,100177
2017-06-23T02:07:14.031Z,100174
2017-06-23T02:09:42.237Z,100167
2017-06-23T02:12:10.761Z,100173
2017-06-23T02:14:39.112Z,100171
2017-06-23T02:17:08.076Z,100177
2017-06-23T02:19:36.414Z,100170
2017-06-23T02:22:04.578Z,100174
2017-06-23T02:24:32.798Z,100176
2017-06-23T02:27:01.145Z,100168
2017-06-23T02:29:29.383Z,100172
2017-06-23T02:31:58.375Z,100172
2017-06-23T02:34:27.373Z,100183
2017-06-23T02:36:56.330Z,100177
2017-06-23T02:39:24.553Z,100177
2017-06-23T02:41:53.595Z,100177
2017-06-23T02:44:21.842Z,100188
2017-06-23T02:46:50.066Z,100187
2017-06-23T02:49:19.031Z,100187
2017-06-23T02:51:47.208Z,100195
2017-06-23T02:54:15.413Z,100191
2017-06-23T02:56:44.355Z,100201
2017-06-23T02:59:12.531Z,100200
2017-06-23T03:01:40.737Z,100197
2017-06-23T03:04:09.691Z,100206
2017-06-23T03:06:37.851Z,100199
2017-06-23T03:09:06.055Z,100197
2017-06-23T03:11:34.292Z,100197
2017-06-23T03:14:02.499Z,100191
2017-06-23T03:16:30.687Z,100197
2017-06-23T03:18:58.887Z,100186
2017-06-23T03:21:27.075Z,100187
2017-06-23T03:23:55.267Z,100189
2017-06-23T03:26:23.530Z,100181
2017-06-23T03:28:52.469Z,100188
2017-06-23T03:31:20.632Z,100199
2017-06-23T03:33:48.877Z,100204
2017-06-23T03:36:17.061Z,100195
2017-06-23T03:38:45.261Z,100202
2017-06-23T03:41:13.633Z,100204
2017-06-23T03:43:41.814Z,100202
2017-06-23T03:46:10.007Z,100204
2017-06-23T03:48:38.239Z,100210
2017-06-23T03:51:06.428Z,100208
2017-06-23T03:53:34.607Z,100210
2017-06-23T03:56:02.879Z,100214
2017-06-23T03:58:31.263Z,100220
2017-06-23T04:00:59.454Z,100223
2017-06-23T04:03:28.560Z,100220
2017-06-23T04:05:56.840Z,100215
2017-06-23T04:08:25.024Z,100214
2017-06-23T04:10:53.384Z,100217
2017-06-23T04:13:22.363Z,100218
2017-06-23T04:15:51.375Z,100224
2017-06-23T04:18:19.554Z,100224
2017-06-23T04:20:47.768Z,100228
2017-06-23T04:23:15.972Z,100232
2017-06-23T04:25:44.915Z,100238
2017-06-23T04:28:13.123Z,100242
2017-06-23T04:30:41.308Z,100241
2017-06-23T04:33:10.431Z,100243
2017-06-23T04:35:38.648Z,100247
2017-06-23T04:38:06.902Z,100251
2017-06-23T04:40:35.163Z,100256
2017-06-23T04:43:03.347Z,100271
2017-06-23T04:45:31.585Z,100267
2017-06-23T04:48:00.546Z,100267
2017-06-23T04:50:28.750Z,100264
2017-06-23T04:52:57.769Z,100277
2017-06-23T04:55:26.006Z,100274
2017-06-23T04:57:54.973Z,100284
2017-06-23T05:00:23.234Z,100290
2017-06-23T05:02:51.430Z,100288
2017-06-23T05:05:19.628Z,100293
2017-06-23T05:07:48.623Z,100304
2017-06-23T05:10:17.600Z,100312
2017-06-23T05:12:45.785Z,100320
2017-06-23T05:15:14.777Z,100304
2017-06-23T05:17:43.743Z,100313
2017-06-23T05:20:11.930Z,100316
2017-06-23T05:22:40.901Z,100326
2017-06-23T05:25:09.083Z,100333
2017-06-23T05:27:37.293Z,100332
2017-06-23T05:30:05.552Z,100335
2017-06-23T05:32:33.764Z,100333
2017-06-23T05:35:01.937Z,100340
2017-06-23T05:37:30.149Z,100341
2017-06-23T05:39:58.370Z,100325
2017-06-23T05:42:26.574Z,100340
2017-06-23T05:44:54.819Z,100347
2017-06-23T05:47:22.999Z,100341
2017-06-23T05:49:51.185Z,100344
2017-06-23T05:52:19.393Z,100346
2017-06-23T05:54:47.591Z,100355
2017-06-23T05:57:16.606Z,100347
2017-06-23T05:59:44.823Z,100343
2017-06-23T06:02:13.027Z,100352
2017-06-23T06:04:42.025Z,100362
2017-06-23T06:07:10.995Z,100368
2017-06-23T06:09:39.219Z,100360
2017-06-23T06:12:07.448Z,100371
2017-06-23T06:14:36.407Z,100363
2017-06-23T06:17:04.584Z,100361
2017-06-23T06:19:32.807Z,100368
2017-06-23T06:22:01.051Z,100372
2017-06-23T06:24:29.259Z,100372
2017-06-23T06:26:57.457Z,100382
2017-06-23T06:29:25.644Z,100387
2017-06-23T06:31:53.901Z,100380
2017-06-23T06:34:22.076Z,100389
2017-06-23T06:36:50.264Z,100393
2017-06-23T06:39:18.498Z,100394
2017-06-23T06:41:46.687Z,100392
2017-06-23T06:44:14.884Z,100396
2017-06-23T06:46:43.140Z,100390
2017-06-23T06:49:11.325Z,100397
2017-06-23T06:51:39.571Z,100395
2017-06-23T06:54:07.864Z,100400
2017-06-23T06:56:36.095Z,100402
2017-06-23T06:59:05.040Z,100409
2017-06-23T07:01:33.280Z,100417
2017-06-23T07:04:01.468Z,100422
2017-06-23T07:06:29.670Z,100419
2017-06-23T07:08:58.022Z,100431
2017-06-23T07:11:26.205Z,100431
2017-06-23T07:13:54.389Z,100443
2017-06-23T07:16:22.615Z,100453
2017-06-23T07:18:51.639Z,100450
2017-06-23T07:21:19.813Z,100450
2017-06-23T07:23:48.131Z,100462
2017-06-23T07:26:16.331Z,100463
2017-06-23T07:28:45.298Z,100469
2017-06-23T07:31:13.721Z,100478
2017-06-23T07:33:41.963Z,100476
2017-06-23T07:36:10.950Z,100472
2017-06-23T07:38:39.197Z,100477
2017-06-23T07:41:07.384Z,100477
2017-06-23T07:43:35.584Z,100476
2017-06-23T07:46:04.551Z,100476
2017-06-23T07:48:32.746Z,100480
2017-06-23T07:51:01.794Z,100477
2017-06-23T07:53:29.998Z,100475
2017-06-23T07:55:58.205Z,100480
2017-06-23T07:58:26.420Z,100485
2017-06-23T08:00:54.673Z,100480
2017-06-23T08:03:22.887Z,100486
2017-06-23T08:05:51.254Z,100487
2017-06-23T08:08:19.522Z,100483
2017-06-23T08:10:47.881Z,100478
2017-06-23T08:13:16.084Z,100482
2017-06-23T08:15:44.426Z,100483
2017-06-23T08:18:12.608Z,100478
2017-06-23T08:20:40.834Z,100476
2017-06-23T08:23:09.777Z,100484
2017-06-23T08:25:37.989Z,100474
2017-06-23T08:28:06.987Z,100474
2017-06-23T08:30:35.934Z,100472
2017-06-23T08:33:04.965Z,100476
2017-06-23T08:35:33.964Z,100470
2017-06-23T08:38:02.955Z,100474
2017-06-23T08:40:31.944Z,100473
2017-06-23T08:43:00.118Z,100476
2017-06-23T08:45:28.304Z,100473
2017-06-23T08:47:56.555Z,100479
2017-06-23T08:50:24.777Z,100475
2017-06-23T08:52:52.956Z,100478
2017-06-23T08:55:21.183Z,100473
2017-06-23T08:57:50.165Z,100471
2017-06-23T09:00:18.596Z,100477
2017-06-23T09:02:46.844Z,100482
2017-06-23T09:05:15.036Z,100477
2017-06-23T09:07:43.326Z,100490
2017-06-23T09:10:11.504Z,100486
2017-06-23T09:12:39.712Z,100484
2017-06-23T09:15:07.920Z,100481
2017-06-23T09:17:36.130Z,100498
2017-06-23T09:20:04.282Z,100487
2017-06-23T09:22:32.502Z,100497
2017-06-23T09:25:00.689Z,100495
2017-06-23T09:27:28.909Z,100498
2017-06-23T09:29:57.129Z,100495
2017-06-23T09:32:25.299Z,100505
2017-06-23T09:34:54.262Z,100497
2017-06-23T09:37:22.487Z,100479
2017-06-23T09:39:50.790Z,100488
2017-06-23T09:42:18.959Z,100486
2017-06-23T09:44:47.190Z,100490
2017-06-23T09:47:16.198Z,100496
2017-06-23T09:49:45.347Z,100487
2017-06-23T09:52:13.551Z,100490
2017-06-23T09:54:42.517Z,100494
2017-06-23T09:57:10.752Z,100486
2017-06-23T09:59:38.939Z,100490
2017-06-23T10:02:07.113Z,100498
2017-06-23T10:04:35.387Z,100482
2017-06-23T10:07:03.560Z,100487
2017-06-23T10:09:31.763Z,100488
2017-06-23T10:11:59.984Z,100485
2017-06-23T10:14:28.164Z,100485
2017-06-23T10:16:56.339Z,100484
2017-06-23T10:19:24.563Z,100489
2017-06-23T10:21:52.752Z,100490
2017-06-23T10:24:20.956Z,100484
2017-06-23T10:26:49.184Z,100486
2017-06-23T10:29:17.416Z,100486
2017-06-23T10:31:45.594Z,100486
2017-06-23T10:34:13.819Z,100488
2017-06-23T10:36:42.844Z,100490
2017-06-23T10:39:11.082Z,100481
2017-06-23T10:41:39.255Z,100489
2017-06-23T10:44:07.528Z,100501
2017-06-23T10:46:35.781Z,100497
2017-06-23T10:49:04.096Z,100491
2017-06-23T10:51:32.282Z,100492
2017-06-23T10:54:00.491Z,100491
2017-06-23T10:56:28.840Z,100491
2017-06-23T10:58:57.028Z,100483
2017-06-23T11:01:25.260Z,100479
2017-06-23T11:03:54.282Z,100475
2017-06-23T11:06:22.945Z,100477
2017-06-23T11:08:52.035Z,100475
2017-06-23T11:11:21.045Z,100471
2017-06-23T11:13:49.279Z,100473
2017-06-23T11:16:17.467Z,100464
2017-06-23T11:18:46.489Z,100461
2017-06-23T11:21:14.781Z,100470
2017-06-23T11:23:43.818Z,100462
2017-06-23T11:26:12.056Z,100465
2017-06-23T11:28:40.276Z,100470
2017-06-23T11:31:08.460Z,100460
2017-06-23T11:33:36.776Z,100461
2017-06-23T11:36:04.944Z,100463
2017-06-23T11:38:33.142Z,100456
2017-06-23T11:41:01.395Z,100471
2017-06-23T11:43:29.593Z,100463
2017-06-23T11:45:57.883Z,100467
2017-06-23T11:48:26.072Z,100463
2017-06-23T11:50:55.062Z,100464
2017-06-23T11:53:24.032Z,100462
2017-06-23T11:55:52.222Z,100470
2017-06-23T11:58:20.433Z,100460
2017-06-23T12:00:48.911Z,100462
2017-06-23T12:03:17.138Z,100473
2017-06-23T12:05:45.379Z,100463
2017-06-23T12:08:13.555Z,100468
2017-06-23T12:10:41.776Z,100473
2017-06-23T12:13:10.766Z,100466
2017-06-23T12:15:39.795Z,100465
2017-06-23T12:18:08.018Z,100455
2017-06-23T12:20:36.991Z,100465
2017-06-23T12:23:05.237Z,100480
2017-06-23T12:25:33.516Z,100469
2017-06-23T12:28:01.754Z,100462
2017-06-23T12:30:30.766Z,100463
2017-06-23T12:32:59.041Z,100457
2017-06-23T12:35:27.235Z,100454
2017-06-23T12:37:55.551Z,100470
2017-06-23T12:40:23.755Z,100458
2017-06-23T12:42:51.923Z,100462
2017-06-23T12:45:20.107Z,100453
2017-06-23T12:47:48.340Z,100440
2017-06-23T12:50:16.527Z,100442
2017-06-23T12:52:45.533Z,100448
2017-06-23T12:55:14.536Z,100436
2017-06-23T12:57:42.828Z,100444
2017-06-23T13:00:11.036Z,100447
2017-06-23T13:02:39.309Z,100442
2017-06-23T13:05:07.512Z,100443
2017-06-23T13:07:36.740Z,100434
2017-06-23T13:10:04.994Z,100440
2017-06-23T13:12:34.360Z,100434
2017-06-23T13:15:02.554Z,100427
2017-06-23T13:17:32.027Z,100430
2017-06-23T13:20:00.226Z,100431
2017-06-23T13:22:29.276Z,100427
2017-06-23T13:24:57.503Z,100420
2017-06-23T13:27:25.682Z,100416
2017-06-23T13:29:53.862Z,100416
2017-06-23T13:32:22.173Z,100407
2017-06-23T13:34:50.468Z,100415
2017-06-23T13:37:18.651Z,100413
2017-06-23T13:39:47.242Z,100409
2017-06-23T13:42:16.249Z,100401
2017-06-23T13:44:45.217Z,100410
2017-06-23T13:47:13.817Z,100413
2017-06-23T13:49:42.771Z,100404
2017-06-23T13:52:11.209Z,100408
2017-06-23T13:54:39.466Z,100406
2017-06-23T13:57:08.432Z,100401
2017-06-23T13:59:36.632Z,100403
2017-06-23T14:02:04.871Z,100397
2017-06-23T14:04:33.076Z,100398
2017-06-23T14:07:02.026Z,100394
2017-06-23T14:09:30.242Z,100390
2017-06-23T14:11:59.210Z,100387
2017-06-23T14:14:27.516Z,100395
2017-06-23T14:16:55.817Z,100391
2017-06-23T14:19:23.994Z,100387
2017-06-23T14:21:52.344Z,100380
2017-06-23T14:24:21.327Z,100384
2017-06-23T14:26:49.559Z,100380
2017-06-23T14:29:17.794Z,100379
2017-06-23T14:31:46.027Z,100369
2017-06-23T14:34:14.599Z,100375
2017-06-23T14:36:42.843Z,100377
2017-06-23T14:39:11.049Z,100372
2017-06-23T14:41:39.267Z,100361
2017-06-23T14:44:07.583Z,100361
2017-06-23T14:46:35.878Z,100357
2017-06-23T14:49:04.070Z,100361
2017-06-23T14:51:33.045Z,100355
2017-06-23T14:54:01.264Z,100354
2017-06-23T14:56:29.427Z,100362
2017-06-23T14:58:57.626Z,100352
2017-06-23T15:01:26.674Z,100353
2017-06-23T15:03:55.618Z,100352
2017-06-23T15:06:23.818Z,100351
2017-06-23T15:08:52.024Z,100344
2017-06-23T15:11:20.234Z,100344
2017-06-23T15:13:48.446Z,100345
2017-06-23T15:16:16.694Z,100348
2017-06-23T15:18:44.951Z,100341
2017-06-23T15:21:13.151Z,100347
2017-06-23T15:23:41.385Z,100345
2017-06-23T15:26:09.641Z,100336
2017-06-23T15:28:37.844Z,100338
2017-06-23T15:31:06.040Z,100336
2017-06-23T15:33:34.248Z,100338
2017-06-23T15:36:03.281Z,100341
2017-06-23T15:38:31.555Z,100333
2017-06-23T15:40:59.779Z,100332
2017-06-23T15:43:27.985Z,100335
2017-06-23T15:45:56.164Z,100330
2017-06-23T15:48:24.370Z,100321
2017-06-23T15:50:52.561Z,100326
2017-06-23T15:53:20.741Z,100335
2017-06-23T15:55:48.979Z,100326
2017-06-23T15:58:17.164Z,100337
2017-06-23T16:00:45.372Z,100338
2017-06-23T16:03:14.494Z,100337
2017-06-23T16:05:42.792Z,100324
2017-06-23T16:08:11.084Z,100334
2017-06-23T16:10:39.359Z,100338
2017-06-23T16:13:07.543Z,100336
2017-06-23T16:15:35.760Z,100340
2017-06-23T16:18:04.689Z,100336
2017-06-23T16:20:32.873Z,100331
2017-06-23T16:23:01.060Z,100325
2017-06-23T16:25:29.279Z,100336
2017-06-23T16:27:57.507Z,100345
2017-06-23T16:30:25.704Z,100344
2017-06-23T16:32:54.733Z,100337
2017-06-23T16:35:23.026Z,100338
2017-06-23T16:37:51.208Z,100341
2017-06-23T16:40:19.432Z,100339
2017-06-23T16:42:48.389Z,100351
2017-06-23T16:45:16.614Z,100347
2017-06-23T16:47:44.854Z,100344
2017-06-23T16:50:13.108Z,100343
2017-06-23T16:52:41.342Z,100343
2017-06-23T16:55:09.578Z,100344
2017-06-23T16:57:38.546Z,100336
2017-06-23T17:00:07.037Z,100348
2017-06-23T17:02:35.302Z,100350
2017-06-23T17:05:03.545Z,100347
2017-06-23T17:07:31.756Z,100358
2017-06-23T17:09:59.948Z,100359
2017-06-23T17:12:28.972Z,100363
2017-06-23T17:14:57.249Z,100364
2017-06-23T17:17:25.449Z,100363
2017-06-23T17:19:53.919Z,100357
2017-06-23T17:22:22.138Z,100360
2017-06-23T17:24:50.301Z,100362
2017-06-23T17:27:18.536Z,100366
2017-06-23T17:29:46.826Z,100365
2017-06-23T17:32:15.029Z,100364
2017-06-23T17:34:43.513Z,100357
2017-06-23T17:37:12.481Z,100366
2017-06-23T17:39:40.672Z,100367
2017-06-23T17:42:09.887Z,100370
2017-06-23T17:44:38.823Z,100367
2017-06-23T17:47:07.147Z,100362
2017-06-23T17:49:36.151Z,100362
2017-06-23T17:52:04.379Z,100376
2017-06-23T17:54:32.673Z,100377
2017-06-23T17:57:00.886Z,100377
2017-06-23T17:59:29.117Z,100376
2017-06-23T18:01:57.306Z,100378
2017-06-23T18:04:26.343Z,100378
2017-06-23T18:06:54.558Z,100367
2017-06-23T18:09:22.759Z,100367
2017-06-23T18:11:51.009Z,100377
2017-06-23T18:14:19.201Z,100374
2017-06-23T18:16:47.488Z,100367
2017-06-23T18:19:16.491Z,100374
2017-06-23T18:21:44.691Z,100371
2017-06-23T18:24:12.864Z,100378
2017-06-23T18:26:41.094Z,100374
2017-06-23T18:29:10.235Z,100381
2017-06-23T18:31:38.450Z,100387
2017-06-23T18:34:06.874Z,100385
2017-06-23T18:36:35.050Z,100387
2017-06-23T18:39:03.249Z,100381
2017-06-23T18:41:31.487Z,100388
2017-06-23T18:43:59.685Z,100384
2017-06-23T18:46:27.873Z,100391
2017-06-23T18:48:56.119Z,100395
2017-06-23T18:51:24.357Z,100396
2017-06-23T18:53:53.415Z,100404
2017-06-23T18:56:21.657Z,100404
2017-06-23T18:58:49.854Z,100407
2017-06-23T19:01:18.104Z,100407
2017-06-23T19:03:46.381Z,100413
2017-06-23T19:06:14.563Z,100414
2017-06-23T19:08:42.770Z,100415
2017-06-23T19:11:11.022Z,100416
2017-06-23T19:13:39.266Z,100416
2017-06-23T19:16:08.612Z,100416
2017-06-23T19:18:36.833Z,100416
2017-06-23T19:21:05.023Z,100410
2017-06-23T19:23:33.224Z,100425
2017-06-23T19:26:02.337Z,100433
2017-06-23T19:28:31.283Z,100441
2017-06-23T19:30:59.603Z,100444
2017-06-23T19:33:27.845Z,100441
2017-06-23T19:35:56.243Z,100446
2017-06-23T19:38:24.502Z,100449
2017-06-23T19:40:52.717Z,100457
2017-06-23T19:43:20.921Z,100465
2017-06-23T19:45:49.138Z,100471
2017-06-23T19:48:17.372Z,100471
2017-06-23T19:50:45.645Z,100468
2017-06-23T19:53:13.840Z,100475
2017-06-23T19:55:42.131Z,100478
2017-06-23T19:58:10.336Z,100476
2017-06-23T20:00:38.551Z,100477
2017-06-23T20:03:06.825Z,100486
2017-06-23T20:05:35.033Z,100492
2017-06-23T20:08:03.234Z,100496
2017-06-23T20:10:32.267Z,100498
2017-06-23T20:13:00.480Z,100505
2017-06-23T20:15:28.677Z,100509
2017-06-23T20:17:56.986Z,100522
2017-06-23T20:20:25.199Z,100523
2017-06-23T20:22:53.419Z,100527
2017-06-23T20:25:21.631Z,100528
2017-06-23T20:27:49.807Z,100535
2017-06-23T20:30:17.991Z,100538
2017-06-23T20:32:47.004Z,100539
2017-06-23T20:35:15.203Z,100544
2017-06-23T20:37:43.412Z,100547
2017-06-23T20:40:11.578Z,100550
2017-06-23T20:42:39.775Z,100544
2017-06-23T20:45:08.005Z,100558
2017-06-23T20:47:36.224Z,100548
2017-06-23T20:50:04.402Z,100555
2017-06-23T20:52:33.419Z,100552
2017-06-23T20:55:01.643Z,100556
2017-06-23T20:57:29.812Z,100554
2017-06-23T20:59:58.328Z,100554
2017-06-23T21:02:26.516Z,100568
2017-06-23T21:04:54.761Z,100567
2017-06-23T21:07:22.935Z,100567
2017-06-23T21:09:51.121Z,100565
2017-06-23T21:12:20.144Z,100575
2017-06-23T21:14:48.351Z,100569
2017-06-23T21:17:16.531Z,100567
2017-06-23T21:19:44.772Z,100568
2017-06-23T21:22:13.114Z,100568
2017-06-23T21:24:42.251Z,100575
2017-06-23T21:27:10.482Z,100567
2017-06-23T21:29:39.456Z,100574
2017-06-23T21:32:07.681Z,100568
2017-06-23T21:34:36.062Z,100570
2017-06-23T21:37:04.287Z,100564
2017-06-23T21:39:32.454Z,100572
2017-06-23T21:42:00.691Z,100567
2017-06-23T21:44:28.892Z,100566
2017-06-23T21:46:57.104Z,100568
2017-06-23T21:49:26.091Z,100564
2017-06-23T21:51:55.117Z,100573
2017-06-23T21:54:23.367Z,100570
2017-06-23T21:56:51.613Z,100561
2017-06-23T21:59:19.814Z,100569
2017-06-23T22:01:48.770Z,100563
2017-06-23T22:04:16.976Z,100562
2017-06-23T22:06:46.240Z,100557
2017-06-23T22:09:14.726Z,100560
2017-06-23T22:11:42.952Z,100565
2017-06-23T22:14:11.286Z,100559
2017-06-23T22:16:40.314Z,100555
2017-06-23T22:19:08.539Z,100563
2017-06-23T22:21:36.780Z,100565
2017-06-23T22:24:05.040Z,100558
2017-06-23T22:26:33.226Z,100559
2017-06-23T22:29:01.498Z,100558
2017-06-23T22:31:29.736Z,100559
2017-06-23T22:33:58.748Z,100552
2017-06-23T22:36:26.989Z,100549
2017-06-23T22:38:55.975Z,100559
2017-06-23T22:41:24.200Z,100554
2017-06-23T22:43:52.396Z,100552
2017-06-23T22:46:20.576Z,100549
2017-06-23T22:48:48.824Z,100554
2017-06-23T22:51:17.001Z,100543
2017-06-23T22:53:45.223Z,100548
2017-06-23T22:56:14.235Z,100546
2017-06-23T22:58:42.444Z,100546
2017-06-23T23:01:10.643Z,100551
2017-06-23T23:03:38.857Z,100551
2017-06-23T23:06:07.112Z,100553
2017-06-23T23:08:36.092Z,100550
2017-06-23T23:11:04.555Z,100548
2017-06-23T23:13:32.817Z,100549
2017-06-23T23:16:01.037Z,100560
2017-06-23T23:18:29.362Z,100553
2017-06-23T23:20:57.563Z,100556
2017-06-23T23:23:25.797Z,100552
2017-06-23T23:25:54.115Z,100560
2017-06-23T23:28:22.450Z,100550
2017-06-23T23:30:50.931Z,100545
2017-06-23T23:33:19.162Z,100549
2017-06-23T23:35:48.108Z,100548
2017-06-23T23:38:16.352Z,100543
2017-06-23T23:40:44.567Z,100551
2017-06-23T23:43:12.757Z,100541
2017-06-23T23:45:40.937Z,100540
2017-06-23T23:48:09.183Z,100537
2017-06-23T23:50:37.421Z,100535
2017-06-23T23:53:05.620Z,100526
2017-06-23T23:55:33.868Z,100539
2017-06-23T23:58:02.069Z,100537
